Time;durP1;ratioP1;P1;durP2;ratioP2;P2;SDS_P1;SDS_P2;PMS_P1;PMS_P2;Temp;Humidity;BMP_temperature;BMP_pressure;BME280_temperature;BME280_humidity;BME280_pressure;Samples;Min_cycle;Max_cycle;Signal;HPM_P1;HPM_P2
2021/09/23 00:00:44;;;;;;;2.20;2.00;;;15.40;99.90;;;;;;5005887;28;20471;-75
2021/09/23 00:03:20;;;;;;;3.43;2.60;;;15.40;99.90;;;;;;5000859;28;20479;-76
2021/09/23 00:05:50;;;;;;;3.43;2.47;;;15.40;99.90;;;;;;5006691;28;20459;-75
2021/09/23 00:08:18;;;;;;;2.60;2.40;;;15.30;99.90;;;;;;5006759;28;20940;-75
2021/09/23 00:10:47;;;;;;;3.27;2.97;;;15.30;99.90;;;;;;5004674;28;20470;-77
2021/09/23 00:13:15;;;;;;;3.03;2.77;;;15.30;99.90;;;;;;5006192;28;20563;-76
2021/09/23 00:15:44;;;;;;;3.20;2.87;;;15.30;99.90;;;;;;4998859;28;21091;-76
2021/09/23 00:18:14;;;;;;;3.50;2.30;;;15.30;99.90;;;;;;5001065;28;20459;-79
2021/09/23 00:20:44;;;;;;;2.93;2.63;;;15.30;99.90;;;;;;5004677;28;20949;-77
2021/09/23 00:23:14;;;;;;;3.67;3.37;;;15.30;99.90;;;;;;5009390;28;20466;-78
2021/09/23 00:25:42;;;;;;;3.10;2.20;;;15.20;99.90;;;;;;5005487;28;20456;-79
2021/09/23 00:28:11;;;;;;;2.90;2.43;;;15.20;99.90;;;;;;5005483;28;20467;-77
2021/09/23 00:30:40;;;;;;;2.70;2.50;;;15.20;99.90;;;;;;5001196;28;20478;-75
2021/09/23 00:33:08;;;;;;;2.73;2.53;;;15.20;99.90;;;;;;5002964;28;21040;-76
2021/09/23 00:35:36;;;;;;;3.83;2.53;;;15.10;99.90;;;;;;5004028;28;20466;-77
2021/09/23 00:38:05;;;;;;;2.80;2.50;;;15.10;99.90;;;;;;5007691;28;20464;-76
2021/09/23 00:40:34;;;;;;;2.83;2.03;;;15.10;99.90;;;;;;5006478;28;20459;-77
2021/09/23 00:43:05;;;;;;;2.80;2.60;;;15.10;99.90;;;;;;5005552;28;20486;-77
2021/09/23 00:45:33;;;;;;;4.20;2.93;;;15.00;99.90;;;;;;5004446;28;20542;-78
2021/09/23 00:48:01;;;;;;;3.23;2.60;;;15.00;99.90;;;;;;5007934;28;20550;-76
2021/09/23 00:50:30;;;;;;;4.90;2.70;;;15.00;99.90;;;;;;5003141;28;20968;-74
2021/09/23 00:52:58;;;;;;;3.63;2.53;;;15.00;99.90;;;;;;5000571;28;20482;-73
2021/09/23 00:55:26;;;;;;;3.27;2.70;;;15.00;99.90;;;;;;5011202;28;20451;-75
2021/09/23 00:57:56;;;;;;;2.50;2.23;;;15.00;99.90;;;;;;5008324;28;20874;-75
2021/09/23 01:00:25;;;;;;;2.90;2.57;;;14.90;99.90;;;;;;5007699;28;20460;-76
2021/09/23 01:02:53;;;;;;;2.60;2.27;;;14.90;99.90;;;;;;5002809;28;20467;-77
2021/09/23 01:05:22;;;;;;;3.23;2.53;;;14.90;99.90;;;;;;5009037;28;20480;-75
2021/09/23 01:07:50;;;;;;;2.30;1.83;;;14.80;99.90;;;;;;5007428;28;20465;-76
2021/09/23 01:10:20;;;;;;;3.00;2.70;;;14.80;99.90;;;;;;5006342;28;20529;-76
2021/09/23 01:12:49;;;;;;;2.50;2.10;;;14.80;99.90;;;;;;5009383;28;20465;-77
2021/09/23 01:15:18;;;;;;;2.53;2.20;;;14.70;99.90;;;;;;5009363;28;20476;-75
2021/09/23 01:17:48;;;;;;;3.30;2.10;;;14.60;99.90;;;;;;5011473;28;20523;-76
2021/09/23 01:20:19;;;;;;;2.90;2.60;;;14.70;99.90;;;;;;5010110;28;20952;-75
2021/09/23 01:22:48;;;;;;;2.53;1.90;;;14.80;99.90;;;;;;5010661;28;20517;-75
2021/09/23 01:25:19;;;;;;;3.00;2.33;;;14.80;99.90;;;;;;5004567;28;20476;-75
2021/09/23 01:27:48;;;;;;;4.13;2.33;;;14.80;99.90;;;;;;5005022;28;20497;-75
2021/09/23 01:30:17;;;;;;;2.50;2.30;;;14.80;99.90;;;;;;5005877;28;20516;-77
2021/09/23 01:32:45;;;;;;;3.23;2.57;;;14.60;99.90;;;;;;5006510;28;20523;-76
2021/09/23 01:35:13;;;;;;;3.83;2.00;;;14.50;99.90;;;;;;5010263;28;20458;-75
2021/09/23 01:37:41;;;;;;;3.27;2.70;;;14.40;99.90;;;;;;5008006;28;20470;-75
2021/09/23 01:40:12;;;;;;;2.40;1.93;;;14.50;99.90;;;;;;5009710;28;20544;-76
2021/09/23 01:42:43;;;;;;;2.60;2.40;;;14.40;99.90;;;;;;5005929;28;21003;-78
2021/09/23 01:45:13;;;;;;;3.27;2.40;;;14.40;99.90;;;;;;5008336;28;20483;-78
2021/09/23 01:47:41;;;;;;;3.60;2.60;;;14.40;99.90;;;;;;5009876;28;20948;-76
2021/09/23 01:50:10;;;;;;;3.30;2.50;;;14.50;99.90;;;;;;5009106;28;20447;-75
2021/09/23 01:52:39;;;;;;;3.13;2.73;;;14.50;99.90;;;;;;5010009;28;21199;-78
2021/09/23 01:55:07;;;;;;;3.10;2.70;;;14.50;99.90;;;;;;5008824;28;20467;-80
2021/09/23 01:57:37;;;;;;;2.67;2.23;;;14.50;99.90;;;;;;5007546;28;20451;-76
2021/09/23 02:00:06;;;;;;;3.93;2.60;;;14.50;99.90;;;;;;5009190;28;20471;-77
2021/09/23 02:02:37;;;;;;;2.63;1.83;;;14.50;99.90;;;;;;5008211;28;20562;-76
2021/09/23 02:05:07;;;;;;;6.93;2.53;;;14.60;99.90;;;;;;4993507;28;20468;-76
2021/09/23 02:07:35;;;;;;;3.10;2.57;;;14.50;99.90;;;;;;5011092;28;21056;-77
2021/09/23 02:10:04;;;;;;;4.67;2.20;;;14.50;99.90;;;;;;5008901;28;20503;-76
2021/09/23 02:12:32;;;;;;;3.00;2.20;;;14.50;99.90;;;;;;5007758;28;20539;-75
2021/09/23 02:15:02;;;;;;;4.77;2.30;;;14.40;99.90;;;;;;4998773;28;20519;-76
2021/09/23 02:17:30;;;;;;;3.53;2.50;;;14.50;99.90;;;;;;5008052;28;20466;-78
2021/09/23 02:19:59;;;;;;;3.80;3.10;;;14.50;99.90;;;;;;5007032;28;20478;-75
2021/09/23 02:22:28;;;;;;;2.40;2.20;;;14.40;99.90;;;;;;5001261;28;20550;-78
2021/09/23 02:24:56;;;;;;;4.03;3.10;;;14.40;99.90;;;;;;5008824;28;20487;-78
2021/09/23 02:27:25;;;;;;;2.47;2.20;;;14.40;99.90;;;;;;5006652;28;20460;-76
2021/09/23 02:29:53;;;;;;;2.80;2.60;;;14.30;99.90;;;;;;5005506;28;20459;-77
2021/09/23 02:32:22;;;;;;;3.37;2.10;;;14.30;99.90;;;;;;5006838;28;20486;-75
2021/09/23 02:34:51;;;;;;;2.80;2.50;;;14.30;99.90;;;;;;5006367;28;20540;-76
2021/09/23 02:37:19;;;;;;;3.60;2.63;;;14.30;99.90;;;;;;5008883;28;20468;-75
2021/09/23 02:39:47;;;;;;;3.13;2.83;;;14.30;99.90;;;;;;5007421;28;20476;-77
2021/09/23 02:42:16;;;;;;;3.87;2.60;;;14.20;99.90;;;;;;5008477;28;20818;-75
2021/09/23 02:44:45;;;;;;;2.50;2.30;;;14.20;99.90;;;;;;5001299;28;20482;-77
2021/09/23 02:47:13;;;;;;;3.40;2.33;;;14.10;99.90;;;;;;5006075;28;20968;-77
2021/09/23 02:49:42;;;;;;;3.43;2.93;;;14.10;99.90;;;;;;5007708;28;20446;-76
2021/09/23 02:52:11;;;;;;;3.73;2.97;;;14.30;99.90;;;;;;5008485;28;20470;-79
2021/09/23 02:54:39;;;;;;;5.30;2.80;;;14.10;99.90;;;;;;5008626;28;20676;-75
2021/09/23 02:57:07;;;;;;;6.47;3.53;;;14.10;99.90;;;;;;5021896;28;20820;-76
2021/09/23 02:59:35;;;;;;;5.10;3.97;;;14.10;99.90;;;;;;5000679;28;20452;-77
2021/09/23 03:02:03;;;;;;;3.07;2.77;;;14.10;99.90;;;;;;5006969;28;20491;-76
2021/09/23 03:04:32;;;;;;;3.87;2.27;;;14.20;99.90;;;;;;4999765;28;20455;-77
2021/09/23 03:07:02;;;;;;;4.10;3.03;;;14.20;99.90;;;;;;5008271;28;20865;-76
2021/09/23 03:09:30;;;;;;;4.07;3.20;;;14.20;99.90;;;;;;5007986;28;20525;-77
2021/09/23 03:11:58;;;;;;;3.97;2.90;;;14.20;99.90;;;;;;5008301;28;21114;-76
2021/09/23 03:14:26;;;;;;;4.87;2.27;;;14.10;99.90;;;;;;5001530;28;20459;-76
2021/09/23 03:16:54;;;;;;;4.40;3.07;;;14.10;99.90;;;;;;5004980;28;20470;-76
2021/09/23 03:19:23;;;;;;;4.17;3.30;;;14.10;99.90;;;;;;5008235;28;20478;-76
2021/09/23 03:21:51;;;;;;;5.23;3.40;;;14.10;99.90;;;;;;4997379;28;20510;-75
2021/09/23 03:24:20;;;;;;;24.63;10.07;;;14.10;99.90;;;;;;4996919;28;20461;-75
2021/09/23 03:26:49;;;;;;;42.63;15.43;;;14.10;99.90;;;;;;5005349;28;20475;-76
2021/09/23 03:29:17;;;;;;;13.90;7.80;;;14.00;99.90;;;;;;5009022;28;20907;-75
2021/09/23 03:31:45;;;;;;;13.13;5.60;;;13.80;99.90;;;;;;5007731;28;20486;-76
2021/09/23 03:34:13;;;;;;;3.73;3.30;;;13.90;99.90;;;;;;5002635;28;20466;-76
2021/09/23 03:36:42;;;;;;;5.20;3.43;;;13.90;99.90;;;;;;5011734;28;20448;-77
2021/09/23 03:39:10;;;;;;;5.13;3.20;;;13.90;99.90;;;;;;4999951;28;20468;-78
2021/09/23 03:41:39;;;;;;;4.90;3.37;;;13.90;99.90;;;;;;5004411;28;20505;-77
2021/09/23 03:44:07;;;;;;;7.23;2.90;;;13.90;99.90;;;;;;5007806;28;20455;-77
2021/09/23 03:46:36;;;;;;;7.93;3.33;;;13.80;99.90;;;;;;5004978;28;20467;-75
2021/09/23 03:49:04;;;;;;;6.00;3.77;;;13.80;99.90;;;;;;5014387;28;20508;-75
2021/09/23 03:51:32;;;;;;;3.23;2.60;;;13.80;99.90;;;;;;5010932;28;20536;-76
2021/09/23 03:54:00;;;;;;;2.93;2.63;;;13.80;99.90;;;;;;5008827;28;20450;-75
2021/09/23 03:56:29;;;;;;;5.80;3.60;;;13.80;99.90;;;;;;5006592;28;20454;-75
2021/09/23 03:58:58;;;;;;;3.97;2.83;;;13.90;99.90;;;;;;5005078;28;20454;-76
2021/09/23 04:01:26;;;;;;;3.20;2.90;;;13.90;99.90;;;;;;5007627;28;20479;-77
2021/09/23 04:03:55;;;;;;;2.87;2.50;;;13.90;99.90;;;;;;5008216;28;20501;-76
2021/09/23 04:06:23;;;;;;;2.93;2.40;;;13.90;99.90;;;;;;4998974;28;20495;-75
2021/09/23 04:08:52;;;;;;;3.00;2.40;;;13.80;99.90;;;;;;5000407;28;20444;-77
2021/09/23 04:11:20;;;;;;;3.00;2.43;;;13.80;99.90;;;;;;5007260;28;20450;-75
2021/09/23 04:13:48;;;;;;;4.30;2.77;;;13.80;99.90;;;;;;5006378;28;20510;-75
2021/09/23 04:16:18;;;;;;;2.80;2.50;;;14.10;99.90;;;;;;5007372;28;20455;-76
2021/09/23 04:18:46;;;;;;;3.50;2.70;;;13.80;99.90;;;;;;5005854;28;20489;-78
2021/09/23 04:21:14;;;;;;;4.10;3.10;;;13.70;99.90;;;;;;5000468;28;20480;-78
2021/09/23 04:23:42;;;;;;;3.13;2.27;;;13.70;99.90;;;;;;5008697;28;20460;-77
2021/09/23 04:26:10;;;;;;;3.60;3.17;;;13.70;99.90;;;;;;5000373;28;20485;-78
2021/09/23 04:28:39;;;;;;;2.83;2.57;;;13.70;99.90;;;;;;5010345;28;20452;-78
2021/09/23 04:31:07;;;;;;;4.10;2.90;;;13.60;99.90;;;;;;5008865;28;20533;-77
2021/09/23 04:33:36;;;;;;;3.03;2.70;;;13.60;99.90;;;;;;5009138;28;20447;-77
2021/09/23 04:36:05;;;;;;;3.97;3.20;;;13.60;99.90;;;;;;5007759;28;20452;-72
2021/09/23 04:38:33;;;;;;;4.67;3.30;;;13.40;99.90;;;;;;5009986;28;20472;-73
2021/09/23 04:41:02;;;;;;;5.13;3.10;;;13.00;99.90;;;;;;5008527;28;20954;-78
2021/09/23 04:43:30;;;;;;;5.30;3.27;;;12.90;99.90;;;;;;5009553;28;20227;-76
2021/09/23 04:45:58;;;;;;;4.10;3.50;;;13.10;99.90;;;;;;5011503;28;20923;-77
2021/09/23 04:48:27;;;;;;;3.63;3.03;;;13.30;99.90;;;;;;5005670;28;20466;-76
2021/09/23 04:50:57;;;;;;;7.43;3.97;;;13.40;99.90;;;;;;5010975;28;20480;-78
2021/09/23 04:53:25;;;;;;;3.27;2.70;;;13.40;99.90;;;;;;5008577;28;20474;-79
2021/09/23 04:55:53;;;;;;;5.40;4.07;;;13.50;99.90;;;;;;5010579;28;20459;-78
2021/09/23 04:58:21;;;;;;;4.27;3.30;;;13.50;99.90;;;;;;5009116;28;20468;-77
2021/09/23 05:00:49;;;;;;;3.10;2.80;;;13.50;99.90;;;;;;5009759;28;20449;-77
2021/09/23 05:03:18;;;;;;;4.03;3.20;;;13.50;99.90;;;;;;5004710;28;20995;-78
2021/09/23 05:05:47;;;;;;;4.10;3.47;;;13.50;99.90;;;;;;5013062;28;20557;-80
2021/09/23 05:08:16;;;;;;;3.80;3.17;;;13.50;99.90;;;;;;5011206;28;20492;-78
2021/09/23 05:10:45;;;;;;;6.53;3.37;;;13.50;99.90;;;;;;5014810;28;20454;-75
2021/09/23 05:13:13;;;;;;;4.90;3.93;;;13.50;99.90;;;;;;5009076;28;20489;-77
2021/09/23 05:15:42;;;;;;;4.27;3.30;;;13.50;99.90;;;;;;5014059;28;20462;-78
2021/09/23 05:18:11;;;;;;;3.30;2.83;;;13.50;99.90;;;;;;5013535;28;20449;-78
2021/09/23 05:20:40;;;;;;;4.60;3.50;;;13.40;99.90;;;;;;5015978;28;20443;-78
2021/09/23 05:23:09;;;;;;;5.47;3.23;;;13.40;99.90;;;;;;5009790;28;20239;-77
2021/09/23 05:25:38;;;;;;;4.17;3.60;;;13.40;99.90;;;;;;5013041;28;20476;-79
2021/09/23 05:28:06;;;;;;;3.70;3.10;;;13.40;99.90;;;;;;5012060;28;20484;-75
2021/09/23 05:30:35;;;;;;;5.90;3.53;;;13.40;99.90;;;;;;5009648;28;20586;-76
2021/09/23 05:33:03;;;;;;;18.53;4.30;;;13.40;99.90;;;;;;5014779;28;20470;-77
2021/09/23 05:35:31;;;;;;;6.63;4.40;;;13.40;99.90;;;;;;5015093;28;20445;-76
2021/09/23 05:38:00;;;;;;;4.60;3.80;;;13.50;99.90;;;;;;5014953;28;20830;-76
2021/09/23 05:40:28;;;;;;;9.53;5.40;;;13.40;99.90;;;;;;5008500;28;20471;-79
2021/09/23 05:42:58;;;;;;;7.60;3.80;;;13.40;99.90;;;;;;5004478;28;20493;-78
2021/09/23 05:45:26;;;;;;;4.60;3.30;;;13.40;99.90;;;;;;5011937;28;20592;-79
2021/09/23 05:47:54;;;;;;;6.40;3.87;;;13.40;99.90;;;;;;5005878;28;21559;-76
2021/09/23 05:50:23;;;;;;;8.73;3.57;;;13.40;99.90;;;;;;5013204;28;20449;-76
2021/09/23 05:52:51;;;;;;;7.57;3.60;;;13.40;99.90;;;;;;5011665;28;21000;-77
2021/09/23 05:55:19;;;;;;;4.97;4.30;;;13.40;99.90;;;;;;5011827;28;20457;-75
2021/09/23 05:57:48;;;;;;;6.77;3.97;;;13.40;99.90;;;;;;5008576;28;20442;-75
2021/09/23 06:00:20;;;;;;;5.53;3.77;;;13.40;99.90;;;;;;5007144;28;20810;-77
2021/09/23 06:02:48;;;;;;;6.00;4.50;;;13.40;99.90;;;;;;5003469;28;20518;-77
2021/09/23 06:05:17;;;;;;;6.40;4.83;;;13.30;99.90;;;;;;5004504;28;20830;-77
2021/09/23 06:07:46;;;;;;;8.87;4.53;;;13.20;99.90;;;;;;5010705;28;20486;-75
2021/09/23 06:10:15;;;;;;;5.90;4.97;;;13.20;99.90;;;;;;5008646;28;20458;-76
2021/09/23 06:12:43;;;;;;;5.63;4.30;;;13.30;99.90;;;;;;5010596;28;20833;-77
2021/09/23 06:15:13;;;;;;;6.05;4.43;;;13.40;99.90;;;;;;5007712;28;20477;-76
2021/09/23 06:17:46;;;;;;;5.07;3.83;;;13.60;99.90;;;;;;5008897;28;20211;-76
2021/09/23 06:20:15;;;;;;;5.33;4.30;;;13.70;99.90;;;;;;5009040;28;20473;-77
2021/09/23 06:22:43;;;;;;;7.55;5.80;;;13.80;99.90;;;;;;5014602;28;20442;-79
2021/09/23 06:25:12;;;;;;;7.83;3.97;;;13.90;99.90;;;;;;5006323;28;20258;-79
2021/09/23 06:27:41;;;;;;;5.20;3.97;;;14.00;99.90;;;;;;5010421;28;20983;-78
2021/09/23 06:30:12;;;;;;;6.07;4.70;;;14.00;99.90;;;;;;5010866;28;20454;-77
2021/09/23 06:32:40;;;;;;;4.53;4.10;;;14.10;99.90;;;;;;5011001;28;20482;-77
2021/09/23 06:35:10;;;;;;;5.87;4.83;;;14.20;99.90;;;;;;5012979;28;21068;-77
2021/09/23 06:37:47;;;;;;;4.90;4.40;;;14.20;99.90;;;;;;5012296;28;20859;-77
2021/09/23 06:40:16;;;;;;;6.30;4.40;;;14.30;99.90;;;;;;5010325;28;20469;-77
2021/09/23 06:42:44;;;;;;;6.80;4.37;;;14.20;99.90;;;;;;5013201;28;20506;-78
2021/09/23 06:45:13;;;;;;;6.63;4.30;;;14.20;99.90;;;;;;5006179;28;20489;-75
2021/09/23 06:47:41;;;;;;;6.47;4.47;;;14.40;99.90;;;;;;5009319;28;20474;-75
2021/09/23 06:50:11;;;;;;;4.20;3.40;;;14.40;99.90;;;;;;5007475;28;20451;-75
2021/09/23 06:52:40;;;;;;;4.87;3.97;;;14.50;99.90;;;;;;5009802;28;20528;-75
2021/09/23 06:55:09;;;;;;;7.17;5.00;;;14.50;99.90;;;;;;5010466;28;20873;-76
2021/09/23 06:57:38;;;;;;;4.83;4.33;;;14.50;99.90;;;;;;5009173;28;20463;-77
2021/09/23 07:00:07;;;;;;;6.10;4.80;;;14.50;99.90;;;;;;5016610;28;20460;-77
2021/09/23 07:02:36;;;;;;;5.50;3.67;;;14.50;99.90;;;;;;5010844;28;20560;-75
2021/09/23 07:05:05;;;;;;;7.60;4.20;;;14.50;99.90;;;;;;5007489;28;20857;-77
2021/09/23 07:07:35;;;;;;;4.33;3.93;;;14.60;99.90;;;;;;5003829;28;20479;-77
2021/09/23 07:10:05;;;;;;;9.33;4.90;;;14.70;99.90;;;;;;5008047;28;20460;-77
2021/09/23 07:12:33;;;;;;;4.35;3.90;;;14.80;99.90;;;;;;5005446;28;20486;-78
2021/09/23 07:15:02;;;;;;;6.30;4.87;;;14.80;99.90;;;;;;5002328;28;20295;-75
2021/09/23 07:17:31;;;;;;;5.40;4.07;;;14.80;99.90;;;;;;5006559;28;21161;-76
2021/09/23 07:19:59;;;;;;;6.78;4.00;;;14.90;99.90;;;;;;5006100;28;20469;-78
2021/09/23 07:22:27;;;;;;;6.20;4.47;;;15.00;99.90;;;;;;5006029;28;20226;-78
2021/09/23 07:24:57;;;;;;;4.80;4.03;;;15.20;99.90;;;;;;5005158;28;20552;-77
2021/09/23 07:27:26;;;;;;;4.10;3.70;;;15.20;99.90;;;;;;5008951;28;20496;-77
2021/09/23 07:29:54;;;;;;;4.70;4.10;;;15.30;99.90;;;;;;5006205;28;20472;-77
2021/09/23 07:32:23;;;;;;;4.07;3.00;;;15.30;99.90;;;;;;5006247;28;20483;-77
2021/09/23 07:34:52;;;;;;;3.90;3.60;;;15.40;99.90;;;;;;5009667;28;20446;-78
2021/09/23 07:37:20;;;;;;;4.33;3.57;;;15.50;99.90;;;;;;5002714;28;20457;-78
2021/09/23 07:39:52;;;;;;;4.30;3.90;;;15.60;99.90;;;;;;5005500;28;20462;-78
2021/09/23 07:42:22;;;;;;;9.07;4.90;;;15.70;99.90;;;;;;5003390;28;20832;-78
2021/09/23 07:44:51;;;;;;;4.00;2.80;;;15.80;99.90;;;;;;5005766;28;21045;-76
2021/09/23 07:47:19;;;;;;;3.50;2.63;;;16.00;99.90;;;;;;5004132;28;20471;-77
2021/09/23 07:49:48;;;;;;;8.00;4.30;;;16.20;99.90;;;;;;5010105;28;20454;-78
2021/09/23 07:52:16;;;;;;;3.20;2.17;;;16.40;99.90;;;;;;5006438;28;20578;-77
2021/09/23 07:54:44;;;;;;;3.33;2.30;;;16.80;99.90;;;;;;5009723;28;20518;-80
2021/09/23 07:57:14;;;;;;;3.63;2.63;;;17.30;99.90;;;;;;5007185;28;20457;-79
2021/09/23 07:59:43;;;;;;;3.50;2.50;;;17.70;99.90;;;;;;5006719;28;21240;-76
2021/09/23 08:02:12;;;;;;;4.37;2.67;;;18.00;99.90;;;;;;5008807;28;20516;-78
2021/09/23 08:04:40;;;;;;;4.53;2.23;;;18.40;99.90;;;;;;5012475;28;20466;-78
2021/09/23 08:07:12;;;;;;;2.70;2.07;;;18.80;99.90;;;;;;5009733;28;20782;-78
2021/09/23 08:09:41;;;;;;;3.60;2.33;;;19.10;99.90;;;;;;5010543;28;20509;-78
2021/09/23 08:12:10;;;;;;;6.10;2.43;;;19.40;99.90;;;;;;5004958;28;20561;-77
2021/09/23 08:14:39;;;;;;;5.13;2.20;;;19.50;99.90;;;;;;5012973;28;20491;-78
2021/09/23 08:17:08;;;;;;;2.50;2.20;;;19.70;99.90;;;;;;5009492;28;20569;-79
2021/09/23 08:19:37;;;;;;;4.87;2.17;;;19.70;99.90;;;;;;5010444;28;20876;-79
2021/09/23 08:22:06;;;;;;;2.13;2.00;;;19.70;99.90;;;;;;5024807;28;20808;-78
2021/09/23 08:24:35;;;;;;;3.03;2.23;;;19.80;99.90;;;;;;5012300;28;20457;-78
2021/09/23 08:27:04;;;;;;;2.80;2.00;;;19.80;99.90;;;;;;5010132;28;20467;-76
2021/09/23 08:29:32;;;;;;;1.80;1.70;;;19.70;99.90;;;;;;5012285;28;20575;-77
2021/09/23 08:32:01;;;;;;;2.67;1.60;;;19.80;99.90;;;;;;5011298;28;20476;-76
2021/09/23 08:34:30;;;;;;;2.13;1.93;;;19.80;99.90;;;;;;5013522;28;20465;-76
2021/09/23 08:36:59;;;;;;;1.80;1.70;;;19.90;99.90;;;;;;5010757;28;20947;-76
2021/09/23 08:39:27;;;;;;;2.20;1.63;;;19.90;99.90;;;;;;5010089;28;20514;-76
2021/09/23 08:41:55;;;;;;;2.43;1.40;;;19.90;99.90;;;;;;5009990;28;20484;-77
2021/09/23 08:44:24;;;;;;;2.03;1.53;;;20.00;99.90;;;;;;5003841;28;20468;-79
2021/09/23 08:46:52;;;;;;;2.60;1.80;;;20.00;99.90;;;;;;5005386;28;20445;-77
2021/09/23 08:49:20;;;;;;;2.70;1.53;;;19.90;99.90;;;;;;5012919;28;21062;-76
2021/09/23 08:51:50;;;;;;;1.87;1.40;;;19.90;99.90;;;;;;5011986;28;20482;-78
2021/09/23 08:54:19;;;;;;;3.13;1.90;;;19.80;99.90;;;;;;5011620;28;20519;-77
2021/09/23 08:56:47;;;;;;;3.23;1.70;;;19.80;99.90;;;;;;5007832;28;20449;-78
2021/09/23 08:59:15;;;;;;;3.00;1.57;;;19.80;99.90;;;;;;5009435;28;20549;-75
2021/09/23 09:01:48;;;;;;;2.90;2.00;;;19.90;99.90;;;;;;5011873;28;20888;-77
2021/09/23 09:04:18;;;;;;;2.00;1.77;;;20.10;99.90;;;;;;5011642;28;21050;-78
2021/09/23 09:06:55;;;;;;;2.60;2.03;;;20.20;99.90;;;;;;5009759;28;20460;-77
2021/09/23 09:09:23;;;;;;;2.00;1.40;;;20.30;99.90;;;;;;5008988;28;20501;-78
2021/09/23 09:12:13;;;;;;;1.47;1.37;;;20.40;99.90;;;;;;5011807;28;20538;-77
2021/09/23 09:14:42;;;;;;;1.57;1.47;;;20.40;99.90;;;;;;5009486;28;20465;-78
2021/09/23 09:17:12;;;;;;;4.70;1.30;;;20.50;99.90;;;;;;5011205;28;20467;-77
2021/09/23 09:19:49;;;;;;;1.77;1.33;;;20.70;99.90;;;;;;5010303;28;20792;-77
2021/09/23 09:22:20;;;;;;;1.60;1.47;;;20.80;99.90;;;;;;5009850;28;20491;-77
2021/09/23 09:24:53;;;;;;;1.93;1.30;;;20.90;99.90;;;;;;5009168;28;20453;-76
2021/09/23 09:27:34;;;;;;;2.50;1.57;;;21.00;99.90;;;;;;5010275;28;21022;-77
2021/09/23 09:30:07;;;;;;;2.00;1.53;;;21.10;99.90;;;;;;5000844;28;20487;-76
2021/09/23 09:32:38;;;;;;;1.73;1.43;;;21.30;99.90;;;;;;5006045;28;20901;-77
2021/09/23 09:35:09;;;;;;;1.60;1.50;;;21.40;99.90;;;;;;5010895;28;20537;-76
2021/09/23 09:37:40;;;;;;;1.70;1.40;;;21.50;99.90;;;;;;5008994;28;20443;-74
2021/09/23 09:40:13;;;;;;;2.03;1.60;;;21.50;99.90;;;;;;5008716;28;20203;-78
2021/09/23 09:42:43;;;;;;;1.77;1.30;;;21.50;99.90;;;;;;5013774;28;20555;-76
2021/09/23 09:45:18;;;;;;;1.40;1.30;;;21.50;99.90;;;;;;5030462;28;20494;-78
2021/09/23 09:47:52;;;;;;;1.33;1.20;;;21.60;99.90;;;;;;5031322;28;20447;-77
2021/09/23 09:50:23;;;;;;;1.40;1.30;;;21.70;99.90;;;;;;5010170;28;20485;-75
2021/09/23 09:52:57;;;;;;;1.90;1.33;;;21.80;99.90;;;;;;5007055;28;20461;-75
2021/09/23 09:55:26;;;;;;;0.97;0.97;;;21.70;99.90;;;;;;5007332;28;20484;-77
2021/09/23 09:57:55;;;;;;;2.83;1.07;;;21.80;99.90;;;;;;5004130;28;20506;-77
2021/09/23 10:00:24;;;;;;;1.63;1.43;;;21.80;99.90;;;;;;5004034;28;20454;-78
2021/09/23 10:02:53;;;;;;;1.37;1.13;;;21.90;99.90;;;;;;4999649;28;20484;-72
2021/09/23 10:05:23;;;;;;;1.33;1.17;;;21.60;99.90;;;;;;5008253;28;20476;-77
2021/09/23 10:07:54;;;;;;;2.53;1.10;;;21.80;99.90;;;;;;5005211;28;20492;-77
2021/09/23 10:10:25;;;;;;;1.57;1.07;;;21.80;99.90;;;;;;5025290;28;20831;-78
2021/09/23 10:12:56;;;;;;;1.10;1.00;;;21.50;99.90;;;;;;5010695;28;20491;-78
2021/09/23 10:15:25;;;;;;;2.50;1.20;;;21.60;99.90;;;;;;5024652;28;20472;-78
2021/09/23 10:17:55;;;;;;;1.10;1.10;;;21.70;99.90;;;;;;5008187;28;20830;-77
2021/09/23 10:20:25;;;;;;;1.70;1.60;;;21.70;99.90;;;;;;5002746;28;20454;-77
2021/09/23 10:22:56;;;;;;;2.50;1.10;;;21.80;99.90;;;;;;5007782;28;20578;-76
2021/09/23 10:25:26;;;;;;;1.30;1.20;;;22.00;99.90;;;;;;5009446;28;20551;-76
2021/09/23 10:27:59;;;;;;;1.20;1.10;;;22.10;99.90;;;;;;5010016;28;20461;-79
2021/09/23 10:30:29;;;;;;;2.30;1.20;;;22.10;99.90;;;;;;5006730;28;20485;-78
2021/09/23 10:32:59;;;;;;;1.10;1.00;;;22.30;99.90;;;;;;5007349;28;20516;-77
2021/09/23 10:35:29;;;;;;;2.17;1.07;;;22.20;99.90;;;;;;5006336;28;20462;-79
2021/09/23 10:38:01;;;;;;;1.13;1.07;;;22.20;99.90;;;;;;5003711;28;20564;-77
2021/09/23 10:40:32;;;;;;;1.97;1.00;;;22.00;99.90;;;;;;5009029;28;20444;-78
2021/09/23 10:43:09;;;;;;;1.30;1.20;;;22.20;99.90;;;;;;5004990;28;20470;-77
2021/09/23 10:45:39;;;;;;;1.60;1.10;;;22.40;99.90;;;;;;5007828;28;21030;-79
2021/09/23 10:48:09;;;;;;;1.43;1.00;;;22.60;99.90;;;;;;5008716;28;20961;-79
2021/09/23 10:50:40;;;;;;;2.60;1.73;;;22.80;99.90;;;;;;5008917;28;20993;-78
2021/09/23 10:53:11;;;;;;;1.53;1.43;;;22.80;99.90;;;;;;5008253;28;20481;-76
2021/09/23 10:55:42;;;;;;;1.27;1.17;;;22.90;99.90;;;;;;5009547;28;20468;-78
2021/09/23 10:58:13;;;;;;;2.10;1.33;;;22.70;99.90;;;;;;5005752;28;20458;-78
2021/09/23 11:00:41;;;;;;;1.67;1.10;;;22.90;99.90;;;;;;5005939;28;20437;-75
2021/09/23 11:03:12;;;;;;;1.33;1.23;;;22.90;99.90;;;;;;5005592;28;20503;-78
2021/09/23 11:05:43;;;;;;;2.90;1.67;;;23.10;99.90;;;;;;5009840;28;20453;-77
2021/09/23 11:08:14;;;;;;;1.30;1.20;;;23.20;99.90;;;;;;5006182;28;21019;-79
2021/09/23 11:10:44;;;;;;;1.23;1.13;;;23.40;99.90;;;;;;5011764;28;20233;-79
2021/09/23 11:13:14;;;;;;;1.27;1.17;;;23.50;99.90;;;;;;5012371;28;20485;-79
2021/09/23 11:15:45;;;;;;;1.80;1.70;;;23.50;99.90;;;;;;5011351;28;20544;-77
2021/09/23 11:18:14;;;;;;;1.30;1.20;;;23.50;99.90;;;;;;5013733;28;20953;-78
2021/09/23 11:20:46;;;;;;;1.47;1.13;;;23.60;99.90;;;;;;5013488;28;21017;-77
2021/09/23 11:23:17;;;;;;;1.30;1.20;;;23.60;99.90;;;;;;5008630;28;20473;-78
2021/09/23 11:25:49;;;;;;;1.10;1.00;;;23.60;99.90;;;;;;5010711;28;20549;-80
2021/09/23 11:28:19;;;;;;;1.20;1.10;;;23.70;99.90;;;;;;5010939;28;20782;-78
2021/09/23 11:30:50;;;;;;;2.28;1.08;;;23.60;99.90;;;;;;5002925;28;20469;-79
2021/09/23 11:33:21;;;;;;;1.33;1.07;;;23.60;99.90;;;;;;5008297;28;20217;-79
2021/09/23 11:35:52;;;;;;;1.07;1.07;;;23.60;99.90;;;;;;5009555;28;20461;-79
2021/09/23 11:38:25;;;;;;;1.30;1.10;;;23.50;99.90;;;;;;5023114;28;20576;-79
2021/09/23 11:40:58;;;;;;;1.57;1.30;;;23.40;99.90;;;;;;5026486;28;20461;-78
2021/09/23 11:43:29;;;;;;;1.30;1.20;;;23.40;99.90;;;;;;5024698;28;20481;-78
2021/09/23 11:45:59;;;;;;;1.17;1.07;;;23.50;99.90;;;;;;5011307;28;20499;-79
2021/09/23 11:48:34;;;;;;;1.00;0.90;;;23.60;99.90;;;;;;5012035;28;20457;-79
2021/09/23 11:51:05;;;;;;;1.00;1.00;;;23.70;99.90;;;;;;5010304;28;20480;-80
2021/09/23 11:53:36;;;;;;;3.67;1.30;;;23.70;99.90;;;;;;5012630;28;20449;-78
2021/09/23 11:56:06;;;;;;;4.90;1.27;;;23.60;99.90;;;;;;5010378;28;21180;-80
2021/09/23 11:58:38;;;;;;;1.10;1.10;;;23.70;99.90;;;;;;5026832;28;20488;-78
2021/09/23 12:01:08;;;;;;;1.63;1.20;;;23.80;99.90;;;;;;5009582;28;20445;-77
2021/09/23 12:03:38;;;;;;;1.30;1.20;;;23.80;99.90;;;;;;5010398;28;20460;-79
2021/09/23 12:06:10;;;;;;;1.73;1.17;;;23.80;99.90;;;;;;5010583;28;21127;-79
2021/09/23 12:08:41;;;;;;;1.20;1.10;;;23.80;99.90;;;;;;5011881;28;20442;-79
2021/09/23 12:11:10;;;;;;;1.10;1.00;;;23.70;99.90;;;;;;5010868;28;20512;-79
2021/09/23 12:13:42;;;;;;;1.33;1.20;;;23.70;99.90;;;;;;5011757;28;20452;-78
2021/09/23 12:16:13;;;;;;;1.20;1.10;;;23.70;99.90;;;;;;5012262;28;20786;-82
2021/09/23 12:18:43;;;;;;;1.50;1.20;;;23.80;99.90;;;;;;5012174;28;20524;-79
2021/09/23 12:21:14;;;;;;;2.73;1.30;;;24.00;99.90;;;;;;5011611;28;20461;-79
2021/09/23 12:23:44;;;;;;;1.13;1.03;;;24.10;99.90;;;;;;5011466;28;20477;-77
2021/09/23 12:26:35;;;;;;;2.17;1.93;;;24.20;99.90;;;;;;5010047;28;20445;-80
2021/09/23 12:29:05;;;;;;;1.40;1.30;;;24.30;99.90;;;;;;5009641;28;20449;-79
2021/09/23 12:31:36;;;;;;;1.30;1.13;;;24.30;99.90;;;;;;5007520;28;20500;-78
2021/09/23 12:34:07;;;;;;;1.30;1.20;;;24.10;99.90;;;;;;5007930;28;20497;-78
2021/09/23 12:36:38;;;;;;;1.30;1.20;;;24.10;99.90;;;;;;5008654;28;20456;-76
2021/09/23 12:39:23;;;;;;;1.70;1.30;;;24.20;99.90;;;;;;5012257;28;20988;-79
2021/09/23 12:42:02;;;;;;;1.40;1.30;;;24.30;99.90;;;;;;5007515;28;21342;-81
2021/09/23 12:44:32;;;;;;;1.40;1.20;;;24.20;99.90;;;;;;5005725;28;20483;-79
2021/09/23 12:47:21;;;;;;;1.30;1.20;;;23.90;99.90;;;;;;5009455;28;20540;-78
2021/09/23 12:50:02;;;;;;;1.87;1.10;;;23.90;99.90;;;;;;5005905;28;20457;-77
2021/09/23 12:52:37;;;;;;;0.87;0.83;;;24.10;99.90;;;;;;5013043;28;20480;-79
2021/09/23 12:55:14;;;;;;;1.50;1.30;;;24.20;99.90;;;;;;5013058;28;20816;-78
2021/09/23 12:57:48;;;;;;;1.60;1.50;;;24.40;99.90;;;;;;5016458;28;20475;-79